sensor_id;sensor_type;location;lat;lon;timestamp;temperature;humidity
1359;DHT22;673;48.098;14.422;2022-11-23T00:02:20;2.50;99.90
1359;DHT22;673;48.098;14.422;2022-11-23T00:04:47;2.50;99.90
1359;DHT22;673;48.098;14.422;2022-11-23T00:07:14;2.60;99.90
1359;DHT22;673;48.098;14.422;2022-11-23T00:09:41;2.60;99.90
1359;DHT22;673;48.098;14.422;2022-11-23T00:12:08;2.50;99.90
1359;DHT22;673;48.098;14.422;2022-11-23T00:14:35;2.50;99.90
1359;DHT22;673;48.098;14.422;2022-11-23T00:17:03;2.50;99.90
1359;DHT22;673;48.098;14.422;2022-11-23T00:19:30;2.60;99.90
1359;DHT22;673;48.098;14.422;2022-11-23T00:21:57;2.50;99.90
1359;DHT22;673;48.098;14.422;2022-11-23T00:24:24;2.60;99.90
1359;DHT22;673;48.098;14.422;2022-11-23T00:26:51;2.60;99.90
1359;DHT22;673;48.098;14.422;2022-11-23T00:29:18;2.60;99.90
1359;DHT22;673;48.098;14.422;2022-11-23T00:31:45;2.60;99.90
1359;DHT22;673;48.098;14.422;2022-11-23T00:34:14;2.60;99.90
1359;DHT22;673;48.098;14.422;2022-11-23T00:36:41;2.70;99.90
1359;DHT22;673;48.098;14.422;2022-11-23T00:39:08;2.70;99.90
1359;DHT22;673;48.098;14.422;2022-11-23T00:41:35;2.80;99.90
1359;DHT22;673;48.098;14.422;2022-11-23T00:44:03;2.80;99.90
1359;DHT22;673;48.098;14.422;2022-11-23T00:46:29;2.70;99.90
1359;DHT22;673;48.098;14.422;2022-11-23T00:48:57;2.70;99.90
1359;DHT22;673;48.098;14.422;2022-11-23T00:51:27;2.70;99.90
1359;DHT22;673;48.098;14.422;2022-11-23T00:53:55;2.70;99.90
1359;DHT22;673;48.098;14.422;2022-11-23T00:56:22;2.70;99.90
1359;DHT22;673;48.098;14.422;2022-11-23T00:58:49;2.60;99.90
1359;DHT22;673;48.098;14.422;2022-11-23T01:01:18;2.60;99.90
1359;DHT22;673;48.098;14.422;2022-11-23T01:03:47;2.70;99.90
1359;DHT22;673;48.098;14.422;2022-11-23T01:06:16;2.70;99.90
1359;DHT22;673;48.098;14.422;2022-11-23T01:08:47;2.70;99.90
1359;DHT22;673;48.098;14.422;2022-11-23T01:11:15;2.70;99.90
1359;DHT22;673;48.098;14.422;2022-11-23T01:13:42;2.70;99.90
1359;DHT22;673;48.098;14.422;2022-11-23T01:16:12;2.70;99.90
1359;DHT22;673;48.098;14.422;2022-11-23T01:18:39;2.70;99.90
1359;DHT22;673;48.098;14.422;2022-11-23T01:21:07;2.70;99.90
1359;DHT22;673;48.098;14.422;2022-11-23T01:23:34;2.80;99.90
1359;DHT22;673;48.098;14.422;2022-11-23T01:26:05;2.70;99.90
1359;DHT22;673;48.098;14.422;2022-11-23T01:28:33;2.70;99.90
1359;DHT22;673;48.098;14.422;2022-11-23T01:31:04;2.70;99.90
1359;DHT22;673;48.098;14.422;2022-11-23T01:33:32;2.80;99.90
1359;DHT22;673;48.098;14.422;2022-11-23T01:35:59;2.80;99.90
1359;DHT22;673;48.098;14.422;2022-11-23T01:38:26;2.90;99.90
1359;DHT22;673;48.098;14.422;2022-11-23T01:40:53;2.80;99.90
1359;DHT22;673;48.098;14.422;2022-11-23T01:43:21;2.70;99.90
1359;DHT22;673;48.098;14.422;2022-11-23T01:45:56;2.80;99.90
1359;DHT22;673;48.098;14.422;2022-11-23T01:48:27;2.70;99.90
1359;DHT22;673;48.098;14.422;2022-11-23T01:50:58;2.70;99.90
1359;DHT22;673;48.098;14.422;2022-11-23T01:53:27;2.70;99.90
1359;DHT22;673;48.098;14.422;2022-11-23T01:55:59;2.70;99.90
1359;DHT22;673;48.098;14.422;2022-11-23T01:58:32;2.70;99.90
1359;DHT22;673;48.098;14.422;2022-11-23T02:01:00;2.70;99.90
1359;DHT22;673;48.098;14.422;2022-11-23T02:03:28;2.70;99.90
1359;DHT22;673;48.098;14.422;2022-11-23T02:06:00;2.70;99.90
1359;DHT22;673;48.098;14.422;2022-11-23T02:08:29;2.70;99.90
1359;DHT22;673;48.098;14.422;2022-11-23T02:10:57;2.70;99.90
1359;DHT22;673;48.098;14.422;2022-11-23T02:13:28;2.70;99.90
1359;DHT22;673;48.098;14.422;2022-11-23T02:15:55;2.70;99.90
1359;DHT22;673;48.098;14.422;2022-11-23T02:18:25;2.70;99.90
1359;DHT22;673;48.098;14.422;2022-11-23T02:20:54;2.70;99.90
1359;DHT22;673;48.098;14.422;2022-11-23T02:23:31;2.70;99.90
1359;DHT22;673;48.098;14.422;2022-11-23T02:26:03;2.70;99.90
1359;DHT22;673;48.098;14.422;2022-11-23T02:28:35;2.80;99.90
1359;DHT22;673;48.098;14.422;2022-11-23T02:31:02;2.80;99.90
1359;DHT22;673;48.098;14.422;2022-11-23T02:33:29;2.70;99.90
1359;DHT22;673;48.098;14.422;2022-11-23T02:35:59;2.90;99.90
1359;DHT22;673;48.098;14.422;2022-11-23T02:38:28;2.90;99.90
1359;DHT22;673;48.098;14.422;2022-11-23T02:40:56;2.90;99.90
1359;DHT22;673;48.098;14.422;2022-11-23T02:43:25;2.80;99.90
1359;DHT22;673;48.098;14.422;2022-11-23T02:45:54;2.80;99.90
1359;DHT22;673;48.098;14.422;2022-11-23T02:48:22;2.90;99.90
1359;DHT22;673;48.098;14.422;2022-11-23T02:50:49;2.90;99.90
1359;DHT22;673;48.098;14.422;2022-11-23T02:53:16;2.80;99.90
1359;DHT22;673;48.098;14.422;2022-11-23T02:55:43;2.80;99.90
1359;DHT22;673;48.098;14.422;2022-11-23T02:58:11;2.80;99.90
1359;DHT22;673;48.098;14.422;2022-11-23T03:00:39;2.80;99.90
1359;DHT22;673;48.098;14.422;2022-11-23T03:03:06;2.80;99.90
1359;DHT22;673;48.098;14.422;2022-11-23T03:05:34;2.80;99.90
1359;DHT22;673;48.098;14.422;2022-11-23T03:08:01;2.90;99.90
1359;DHT22;673;48.098;14.422;2022-11-23T03:10:28;2.90;99.90
1359;DHT22;673;48.098;14.422;2022-11-23T03:12:56;2.90;99.90
1359;DHT22;673;48.098;14.422;2022-11-23T03:15:23;2.90;99.90
1359;DHT22;673;48.098;14.422;2022-11-23T03:17:51;2.80;99.90
1359;DHT22;673;48.098;14.422;2022-11-23T03:20:19;2.80;99.90
1359;DHT22;673;48.098;14.422;2022-11-23T03:22:46;2.80;99.90
1359;DHT22;673;48.098;14.422;2022-11-23T03:25:13;2.80;99.90
1359;DHT22;673;48.098;14.422;2022-11-23T03:27:40;2.80;99.90
1359;DHT22;673;48.098;14.422;2022-11-23T03:30:08;2.90;99.90
1359;DHT22;673;48.098;14.422;2022-11-23T03:32:35;2.80;99.90
1359;DHT22;673;48.098;14.422;2022-11-23T03:35:04;2.90;99.90
1359;DHT22;673;48.098;14.422;2022-11-23T03:37:32;2.80;99.90
1359;DHT22;673;48.098;14.422;2022-11-23T03:39:59;2.80;99.90
1359;DHT22;673;48.098;14.422;2022-11-23T03:42:26;2.90;99.90
1359;DHT22;673;48.098;14.422;2022-11-23T03:44:53;2.90;99.90
1359;DHT22;673;48.098;14.422;2022-11-23T03:47:20;2.90;99.90
1359;DHT22;673;48.098;14.422;2022-11-23T03:49:47;3.00;99.90
1359;DHT22;673;48.098;14.422;2022-11-23T03:52:15;3.00;99.90
1359;DHT22;673;48.098;14.422;2022-11-23T03:54:42;2.90;99.90
1359;DHT22;673;48.098;14.422;2022-11-23T03:57:09;3.00;99.90
1359;DHT22;673;48.098;14.422;2022-11-23T03:59:36;3.00;99.90
1359;DHT22;673;48.098;14.422;2022-11-23T04:02:03;3.00;99.90
1359;DHT22;673;48.098;14.422;2022-11-23T04:04:30;3.10;99.90
1359;DHT22;673;48.098;14.422;2022-11-23T04:06:57;3.10;99.90
1359;DHT22;673;48.098;14.422;2022-11-23T04:09:25;3.10;99.90
1359;DHT22;673;48.098;14.422;2022-11-23T04:11:52;3.00;99.90
1359;DHT22;673;48.098;14.422;2022-11-23T04:14:19;3.00;99.90
1359;DHT22;673;48.098;14.422;2022-11-23T04:16:46;3.10;99.90
1359;DHT22;673;48.098;14.422;2022-11-23T04:19:13;3.10;99.90
1359;DHT22;673;48.098;14.422;2022-11-23T04:21:40;3.10;99.90
1359;DHT22;673;48.098;14.422;2022-11-23T04:24:07;3.10;99.90
1359;DHT22;673;48.098;14.422;2022-11-23T04:26:36;3.10;99.90
1359;DHT22;673;48.098;14.422;2022-11-23T04:29:05;3.20;99.90
1359;DHT22;673;48.098;14.422;2022-11-23T04:31:32;3.10;99.90
1359;DHT22;673;48.098;14.422;2022-11-23T04:33:59;3.10;99.90
1359;DHT22;673;48.098;14.422;2022-11-23T04:36:25;3.10;99.90
1359;DHT22;673;48.098;14.422;2022-11-23T04:38:53;3.10;99.90
1359;DHT22;673;48.098;14.422;2022-11-23T04:41:20;3.10;99.90
1359;DHT22;673;48.098;14.422;2022-11-23T04:43:49;3.20;99.90
1359;DHT22;673;48.098;14.422;2022-11-23T04:46:16;3.10;99.90
1359;DHT22;673;48.098;14.422;2022-11-23T04:48:43;3.10;99.90
1359;DHT22;673;48.098;14.422;2022-11-23T04:51:10;3.20;99.90
1359;DHT22;673;48.098;14.422;2022-11-23T04:53:37;3.10;99.90
1359;DHT22;673;48.098;14.422;2022-11-23T04:56:05;3.10;99.90
1359;DHT22;673;48.098;14.422;2022-11-23T04:58:32;3.20;99.90
1359;DHT22;673;48.098;14.422;2022-11-23T05:01:03;3.10;99.90
1359;DHT22;673;48.098;14.422;2022-11-23T05:03:31;3.10;99.90
1359;DHT22;673;48.098;14.422;2022-11-23T05:06:00;3.10;99.90
1359;DHT22;673;48.098;14.422;2022-11-23T05:08:27;3.20;99.90
1359;DHT22;673;48.098;14.422;2022-11-23T05:10:54;3.10;99.90
1359;DHT22;673;48.098;14.422;2022-11-23T05:13:21;3.10;99.90
1359;DHT22;673;48.098;14.422;2022-11-23T05:15:49;3.10;99.90
1359;DHT22;673;48.098;14.422;2022-11-23T05:18:17;3.10;99.90
1359;DHT22;673;48.098;14.422;2022-11-23T05:20:44;3.20;99.90
1359;DHT22;673;48.098;14.422;2022-11-23T05:23:11;3.20;99.90
1359;DHT22;673;48.098;14.422;2022-11-23T05:25:38;3.20;99.90
1359;DHT22;673;48.098;14.422;2022-11-23T05:28:05;3.20;99.90
1359;DHT22;673;48.098;14.422;2022-11-23T05:30:32;3.20;99.90
1359;DHT22;673;48.098;14.422;2022-11-23T05:33:00;3.20;99.90
1359;DHT22;673;48.098;14.422;2022-11-23T05:35:29;3.30;99.90
1359;DHT22;673;48.098;14.422;2022-11-23T05:37:56;3.30;99.90
1359;DHT22;673;48.098;14.422;2022-11-23T05:40:23;3.40;99.90
1359;DHT22;673;48.098;14.422;2022-11-23T05:42:53;3.40;99.90
1359;DHT22;673;48.098;14.422;2022-11-23T05:45:20;3.50;99.90
1359;DHT22;673;48.098;14.422;2022-11-23T05:47:49;3.50;99.90
1359;DHT22;673;48.098;14.422;2022-11-23T05:50:16;3.50;99.90
1359;DHT22;673;48.098;14.422;2022-11-23T05:52:45;3.50;99.90
1359;DHT22;673;48.098;14.422;2022-11-23T05:55:12;3.60;99.90
1359;DHT22;673;48.098;14.422;2022-11-23T05:57:39;3.60;99.90
1359;DHT22;673;48.098;14.422;2022-11-23T06:00:07;3.60;99.90
1359;DHT22;673;48.098;14.422;2022-11-23T06:02:36;3.50;99.90
1359;DHT22;673;48.098;14.422;2022-11-23T06:05:03;3.50;99.90
1359;DHT22;673;48.098;14.422;2022-11-23T06:07:31;3.50;99.90
1359;DHT22;673;48.098;14.422;2022-11-23T06:09:59;3.40;99.90
1359;DHT22;673;48.098;14.422;2022-11-23T06:12:26;3.30;99.90
1359;DHT22;673;48.098;14.422;2022-11-23T06:14:53;3.30;99.90
1359;DHT22;673;48.098;14.422;2022-11-23T06:17:20;3.30;99.90
1359;DHT22;673;48.098;14.422;2022-11-23T06:19:47;3.30;99.90
1359;DHT22;673;48.098;14.422;2022-11-23T06:22:15;3.20;99.90
1359;DHT22;673;48.098;14.422;2022-11-23T06:24:42;3.20;99.90
1359;DHT22;673;48.098;14.422;2022-11-23T06:27:10;3.10;99.90
1359;DHT22;673;48.098;14.422;2022-11-23T06:29:41;3.10;99.90
1359;DHT22;673;48.098;14.422;2022-11-23T06:32:08;3.10;99.90
1359;DHT22;673;48.098;14.422;2022-11-23T06:34:35;3.10;99.90
1359;DHT22;673;48.098;14.422;2022-11-23T06:37:02;3.20;99.90
1359;DHT22;673;48.098;14.422;2022-11-23T06:39:29;3.20;99.90
1359;DHT22;673;48.098;14.422;2022-11-23T06:41:55;3.20;99.90
1359;DHT22;673;48.098;14.422;2022-11-23T06:44:24;3.20;99.90
1359;DHT22;673;48.098;14.422;2022-11-23T06:46:51;3.30;99.90
1359;DHT22;673;48.098;14.422;2022-11-23T06:49:18;3.30;99.90
1359;DHT22;673;48.098;14.422;2022-11-23T06:51:46;3.30;99.90
1359;DHT22;673;48.098;14.422;2022-11-23T06:54:13;3.30;99.90
1359;DHT22;673;48.098;14.422;2022-11-23T06:56:40;3.30;99.90
1359;DHT22;673;48.098;14.422;2022-11-23T06:59:07;3.30;99.90
1359;DHT22;673;48.098;14.422;2022-11-23T07:01:35;3.20;99.90
1359;DHT22;673;48.098;14.422;2022-11-23T07:04:02;3.20;99.90
1359;DHT22;673;48.098;14.422;2022-11-23T07:06:29;3.40;99.90
1359;DHT22;673;48.098;14.422;2022-11-23T07:08:56;3.50;99.90
1359;DHT22;673;48.098;14.422;2022-11-23T07:11:23;3.60;99.90
1359;DHT22;673;48.098;14.422;2022-11-23T07:13:50;3.60;99.90
1359;DHT22;673;48.098;14.422;2022-11-23T07:16:17;3.70;99.90
1359;DHT22;673;48.098;14.422;2022-11-23T07:18:45;3.80;99.90
1359;DHT22;673;48.098;14.422;2022-11-23T07:21:12;3.80;99.90
1359;DHT22;673;48.098;14.422;2022-11-23T07:23:39;3.90;99.90
1359;DHT22;673;48.098;14.422;2022-11-23T07:26:06;4.00;99.90
1359;DHT22;673;48.098;14.422;2022-11-23T07:28:33;4.10;99.90
1359;DHT22;673;48.098;14.422;2022-11-23T07:31:00;4.00;99.90
1359;DHT22;673;48.098;14.422;2022-11-23T07:33:28;4.10;99.90
1359;DHT22;673;48.098;14.422;2022-11-23T07:35:59;4.10;99.90
1359;DHT22;673;48.098;14.422;2022-11-23T07:38:26;4.20;99.90
1359;DHT22;673;48.098;14.422;2022-11-23T07:40:53;4.30;99.90
1359;DHT22;673;48.098;14.422;2022-11-23T07:43:20;4.30;99.90
1359;DHT22;673;48.098;14.422;2022-11-23T07:45:48;4.30;99.90
1359;DHT22;673;48.098;14.422;2022-11-23T07:48:15;4.40;99.90
1359;DHT22;673;48.098;14.422;2022-11-23T07:50:42;4.40;99.90
1359;DHT22;673;48.098;14.422;2022-11-23T07:53:10;4.40;99.90
1359;DHT22;673;48.098;14.422;2022-11-23T07:55:37;4.40;99.90
1359;DHT22;673;48.098;14.422;2022-11-23T07:58:04;4.30;99.90
1359;DHT22;673;48.098;14.422;2022-11-23T08:00:31;4.30;99.90
1359;DHT22;673;48.098;14.422;2022-11-23T08:02:58;4.30;99.90
1359;DHT22;673;48.098;14.422;2022-11-23T08:05:25;4.40;99.90
1359;DHT22;673;48.098;14.422;2022-11-23T08:07:57;4.40;99.90
1359;DHT22;673;48.098;14.422;2022-11-23T08:10:26;4.50;99.90
1359;DHT22;673;48.098;14.422;2022-11-23T08:12:56;4.40;99.90
1359;DHT22;673;48.098;14.422;2022-11-23T08:15:24;4.50;99.90
1359;DHT22;673;48.098;14.422;2022-11-23T08:17:54;4.50;99.90
1359;DHT22;673;48.098;14.422;2022-11-23T08:20:22;4.70;99.90
1359;DHT22;673;48.098;14.422;2022-11-23T08:22:49;4.60;99.90
1359;DHT22;673;48.098;14.422;2022-11-23T08:25:16;4.80;99.90
1359;DHT22;673;48.098;14.422;2022-11-23T08:27:44;4.80;99.90
1359;DHT22;673;48.098;14.422;2022-11-23T08:30:12;4.70;99.90
1359;DHT22;673;48.098;14.422;2022-11-23T08:32:39;4.80;99.90
1359;DHT22;673;48.098;14.422;2022-11-23T08:35:06;4.90;99.90
1359;DHT22;673;48.098;14.422;2022-11-23T08:37:33;5.00;99.90
1359;DHT22;673;48.098;14.422;2022-11-23T08:40:00;4.90;99.90
1359;DHT22;673;48.098;14.422;2022-11-23T08:42:27;4.90;99.90
1359;DHT22;673;48.098;14.422;2022-11-23T08:44:56;5.00;99.90
1359;DHT22;673;48.098;14.422;2022-11-23T08:47:25;5.00;99.90
1359;DHT22;673;48.098;14.422;2022-11-23T08:49:52;5.00;99.90
1359;DHT22;673;48.098;14.422;2022-11-23T08:52:19;5.10;99.90
1359;DHT22;673;48.098;14.422;2022-11-23T08:54:46;5.10;99.90
1359;DHT22;673;48.098;14.422;2022-11-23T08:57:13;5.10;99.90
1359;DHT22;673;48.098;14.422;2022-11-23T08:59:40;4.90;99.90
1359;DHT22;673;48.098;14.422;2022-11-23T09:02:09;4.90;99.90
1359;DHT22;673;48.098;14.422;2022-11-23T09:04:36;4.90;99.90
1359;DHT22;673;48.098;14.422;2022-11-23T09:07:03;5.10;99.90
1359;DHT22;673;48.098;14.422;2022-11-23T09:09:30;5.10;99.90
1359;DHT22;673;48.098;14.422;2022-11-23T09:11:57;5.10;99.90
1359;DHT22;673;48.098;14.422;2022-11-23T09:14:24;5.10;99.90
1359;DHT22;673;48.098;14.422;2022-11-23T09:16:52;5.10;99.90
1359;DHT22;673;48.098;14.422;2022-11-23T09:19:20;5.30;99.90
1359;DHT22;673;48.098;14.422;2022-11-23T09:21:47;5.30;99.90
1359;DHT22;673;48.098;14.422;2022-11-23T09:24:14;5.40;99.90
1359;DHT22;673;48.098;14.422;2022-11-23T09:26:41;5.40;99.90
1359;DHT22;673;48.098;14.422;2022-11-23T09:29:08;5.60;99.90
1359;DHT22;673;48.098;14.422;2022-11-23T09:31:35;5.50;99.90
1359;DHT22;673;48.098;14.422;2022-11-23T09:34:02;5.40;99.90
1359;DHT22;673;48.098;14.422;2022-11-23T09:36:31;5.40;99.90
1359;DHT22;673;48.098;14.422;2022-11-23T09:38:58;5.40;99.90
1359;DHT22;673;48.098;14.422;2022-11-23T09:41:57;5.40;99.90
1359;DHT22;673;48.098;14.422;2022-11-23T09:44:34;5.40;99.90
1359;DHT22;673;48.098;14.422;2022-11-23T09:47:17;5.30;99.90
1359;DHT22;673;48.098;14.422;2022-11-23T09:49:55;5.30;99.90
1359;DHT22;673;48.098;14.422;2022-11-23T09:52:29;5.30;99.90
1359;DHT22;673;48.098;14.422;2022-11-23T09:55:00;5.30;99.90
1359;DHT22;673;48.098;14.422;2022-11-23T09:57:31;5.30;99.90
1359;DHT22;673;48.098;14.422;2022-11-23T10:00:01;5.40;99.90
1359;DHT22;673;48.098;14.422;2022-11-23T10:02:31;5.30;99.90
1359;DHT22;673;48.098;14.422;2022-11-23T10:05:00;5.20;99.90
1359;DHT22;673;48.098;14.422;2022-11-23T10:07:43;5.30;99.90
1359;DHT22;673;48.098;14.422;2022-11-23T10:10:24;5.30;99.90
1359;DHT22;673;48.098;14.422;2022-11-23T10:13:06;5.40;99.90
1359;DHT22;673;48.098;14.422;2022-11-23T10:15:50;5.50;99.90
1359;DHT22;673;48.098;14.422;2022-11-23T10:18:26;5.40;99.90
1359;DHT22;673;48.098;14.422;2022-11-23T10:21:01;5.40;99.90
1359;DHT22;673;48.098;14.422;2022-11-23T10:23:41;5.40;99.90
1359;DHT22;673;48.098;14.422;2022-11-23T10:26:09;5.30;99.90
1359;DHT22;673;48.098;14.422;2022-11-23T10:28:38;5.10;99.90
1359;DHT22;673;48.098;14.422;2022-11-23T10:31:12;5.20;99.90
1359;DHT22;673;48.098;14.422;2022-11-23T10:33:51;5.20;99.90
1359;DHT22;673;48.098;14.422;2022-11-23T10:36:19;5.30;99.90
1359;DHT22;673;48.098;14.422;2022-11-23T10:38:49;5.30;99.90
1359;DHT22;673;48.098;14.422;2022-11-23T10:41:16;5.30;99.90
1359;DHT22;673;48.098;14.422;2022-11-23T10:43:46;5.30;99.90
1359;DHT22;673;48.098;14.422;2022-11-23T10:46:29;5.30;99.90
1359;DHT22;673;48.098;14.422;2022-11-23T10:49:15;5.30;99.90
1359;DHT22;673;48.098;14.422;2022-11-23T10:51:54;5.40;99.90
1359;DHT22;673;48.098;14.422;2022-11-23T10:54:26;5.30;99.90
1359;DHT22;673;48.098;14.422;2022-11-23T10:56:55;5.20;99.90
1359;DHT22;673;48.098;14.422;2022-11-23T10:59:35;5.30;99.90
1359;DHT22;673;48.098;14.422;2022-11-23T11:02:13;5.20;99.90
1359;DHT22;673;48.098;14.422;2022-11-23T11:04:41;5.30;99.90
1359;DHT22;673;48.098;14.422;2022-11-23T11:07:23;5.50;99.90
1359;DHT22;673;48.098;14.422;2022-11-23T11:09:57;5.50;99.90
1359;DHT22;673;48.098;14.422;2022-11-23T11:12:25;5.50;99.90
1359;DHT22;673;48.098;14.422;2022-11-23T11:15:01;5.50;99.90
1359;DHT22;673;48.098;14.422;2022-11-23T11:17:30;5.70;99.90
1359;DHT22;673;48.098;14.422;2022-11-23T11:19:58;5.80;99.90
1359;DHT22;673;48.098;14.422;2022-11-23T11:22:32;5.80;99.90
1359;DHT22;673;48.098;14.422;2022-11-23T11:25:03;5.90;99.90
1359;DHT22;673;48.098;14.422;2022-11-23T11:27:31;5.90;99.90
1359;DHT22;673;48.098;14.422;2022-11-23T11:30:05;5.80;99.90
1359;DHT22;673;48.098;14.422;2022-11-23T11:32:41;5.80;99.90
1359;DHT22;673;48.098;14.422;2022-11-23T11:35:13;5.70;99.90
1359;DHT22;673;48.098;14.422;2022-11-23T11:37:43;5.60;99.90
1359;DHT22;673;48.098;14.422;2022-11-23T11:40:19;5.70;99.90
1359;DHT22;673;48.098;14.422;2022-11-23T11:42:52;5.70;99.90
1359;DHT22;673;48.098;14.422;2022-11-23T11:45:23;5.60;99.90
1359;DHT22;673;48.098;14.422;2022-11-23T11:47:56;5.60;99.90
1359;DHT22;673;48.098;14.422;2022-11-23T11:50:28;5.60;99.90
1359;DHT22;673;48.098;14.422;2022-11-23T11:53:00;5.70;99.90
1359;DHT22;673;48.098;14.422;2022-11-23T11:55:43;5.70;99.90
1359;DHT22;673;48.098;14.422;2022-11-23T11:58:14;5.60;99.90
1359;DHT22;673;48.098;14.422;2022-11-23T12:00:41;5.70;99.90
1359;DHT22;673;48.098;14.422;2022-11-23T12:03:17;5.70;99.90
1359;DHT22;673;48.098;14.422;2022-11-23T12:05:48;5.60;99.90
1359;DHT22;673;48.098;14.422;2022-11-23T12:08:18;5.60;99.90
1359;DHT22;673;48.098;14.422;2022-11-23T12:10:51;5.70;99.90
1359;DHT22;673;48.098;14.422;2022-11-23T12:13:20;5.70;99.90
1359;DHT22;673;48.098;14.422;2022-11-23T12:15:53;5.80;99.90
1359;DHT22;673;48.098;14.422;2022-11-23T12:18:49;5.80;99.90
1359;DHT22;673;48.098;14.422;2022-11-23T12:21:49;5.80;99.90
1359;DHT22;673;48.098;14.422;2022-11-23T12:24:28;5.90;99.90
1359;DHT22;673;48.098;14.422;2022-11-23T12:27:08;5.90;99.90
1359;DHT22;673;48.098;14.422;2022-11-23T12:29:59;6.10;99.90
1359;DHT22;673;48.098;14.422;2022-11-23T12:32:33;6.20;99.90
1359;DHT22;673;48.098;14.422;2022-11-23T12:35:23;6.10;99.90
1359;DHT22;673;48.098;14.422;2022-11-23T12:38:03;6.10;99.90
1359;DHT22;673;48.098;14.422;2022-11-23T12:40:56;6.10;99.90
1359;DHT22;673;48.098;14.422;2022-11-23T12:43:31;6.20;99.90
1359;DHT22;673;48.098;14.422;2022-11-23T12:46:09;6.30;99.90
1359;DHT22;673;48.098;14.422;2022-11-23T12:48:48;6.30;99.90
1359;DHT22;673;48.098;14.422;2022-11-23T12:51:24;6.40;99.90
1359;DHT22;673;48.098;14.422;2022-11-23T12:56:54;6.30;99.90
1359;DHT22;673;48.098;14.422;2022-11-23T12:59:37;6.30;99.90
1359;DHT22;673;48.098;14.422;2022-11-23T13:02:13;6.20;99.90
1359;DHT22;673;48.098;14.422;2022-11-23T13:05:10;6.10;99.90
1359;DHT22;673;48.098;14.422;2022-11-23T13:08:20;6.10;99.90
1359;DHT22;673;48.098;14.422;2022-11-23T13:10:57;6.20;99.90
1359;DHT22;673;48.098;14.422;2022-11-23T13:13:43;6.30;99.90
1359;DHT22;673;48.098;14.422;2022-11-23T13:19:19;6.10;99.90
1359;DHT22;673;48.098;14.422;2022-11-23T13:21:50;6.00;99.90
1359;DHT22;673;48.098;14.422;2022-11-23T13:24:24;6.00;99.90
1359;DHT22;673;48.098;14.422;2022-11-23T13:29:56;6.20;99.90
1359;DHT22;673;48.098;14.422;2022-11-23T13:32:45;6.10;99.90
1359;DHT22;673;48.098;14.422;2022-11-23T13:35:52;6.10;99.90
1359;DHT22;673;48.098;14.422;2022-11-23T13:38:41;5.90;99.90
1359;DHT22;673;48.098;14.422;2022-11-23T13:44:19;5.80;99.90
1359;DHT22;673;48.098;14.422;2022-11-23T13:47:02;5.70;99.90
1359;DHT22;673;48.098;14.422;2022-11-23T13:49:34;5.60;99.90
1359;DHT22;673;48.098;14.422;2022-11-23T13:52:11;5.60;99.90
1359;DHT22;673;48.098;14.422;2022-11-23T13:54:41;5.50;99.90
1359;DHT22;673;48.098;14.422;2022-11-23T13:57:19;5.50;99.90
1359;DHT22;673;48.098;14.422;2022-11-23T13:59:46;5.50;99.90
1359;DHT22;673;48.098;14.422;2022-11-23T14:02:24;5.60;99.90
1359;DHT22;673;48.098;14.422;2022-11-23T14:05:29;5.50;99.90
1359;DHT22;673;48.098;14.422;2022-11-23T14:07:58;5.50;99.90
1359;DHT22;673;48.098;14.422;2022-11-23T14:10:29;5.50;99.90
1359;DHT22;673;48.098;14.422;2022-11-23T14:13:00;5.50;99.90
1359;DHT22;673;48.098;14.422;2022-11-23T14:15:31;5.40;99.90
1359;DHT22;673;48.098;14.422;2022-11-23T14:18:19;5.50;99.90
1359;DHT22;673;48.098;14.422;2022-11-23T14:21:05;5.50;99.90
1359;DHT22;673;48.098;14.422;2022-11-23T14:24:07;5.40;99.90
1359;DHT22;673;48.098;14.422;2022-11-23T14:26:54;5.30;99.90
1359;DHT22;673;48.098;14.422;2022-11-23T14:29:30;5.20;99.90
1359;DHT22;673;48.098;14.422;2022-11-23T14:32:18;5.20;99.90
1359;DHT22;673;48.098;14.422;2022-11-23T14:34:55;5.20;99.90
1359;DHT22;673;48.098;14.422;2022-11-23T14:37:35;5.20;99.90
1359;DHT22;673;48.098;14.422;2022-11-23T14:40:11;5.20;99.90
1359;DHT22;673;48.098;14.422;2022-11-23T14:42:43;5.10;99.90
1359;DHT22;673;48.098;14.422;2022-11-23T14:45:13;5.10;99.90
1359;DHT22;673;48.098;14.422;2022-11-23T14:47:41;5.10;99.90
1359;DHT22;673;48.098;14.422;2022-11-23T14:50:20;5.10;99.90
1359;DHT22;673;48.098;14.422;2022-11-23T14:52:49;5.00;99.90
1359;DHT22;673;48.098;14.422;2022-11-23T14:55:20;5.00;99.90
1359;DHT22;673;48.098;14.422;2022-11-23T14:57:51;4.90;99.90
1359;DHT22;673;48.098;14.422;2022-11-23T15:00:27;4.90;99.90
1359;DHT22;673;48.098;14.422;2022-11-23T15:02:56;4.70;99.90
1359;DHT22;673;48.098;14.422;2022-11-23T15:05:27;4.70;99.90
1359;DHT22;673;48.098;14.422;2022-11-23T15:08:01;4.70;99.90
1359;DHT22;673;48.098;14.422;2022-11-23T15:10:38;4.60;99.90
1359;DHT22;673;48.098;14.422;2022-11-23T15:13:18;4.60;99.90
1359;DHT22;673;48.098;14.422;2022-11-23T15:15:47;4.60;99.90
1359;DHT22;673;48.098;14.422;2022-11-23T15:18:26;4.60;99.90
1359;DHT22;673;48.098;14.422;2022-11-23T15:20:55;4.50;99.90
1359;DHT22;673;48.098;14.422;2022-11-23T15:23:28;4.50;99.90
1359;DHT22;673;48.098;14.422;2022-11-23T15:26:00;4.50;99.90
1359;DHT22;673;48.098;14.422;2022-11-23T15:28:30;4.40;99.90
1359;DHT22;673;48.098;14.422;2022-11-23T15:30:57;4.40;99.90
1359;DHT22;673;48.098;14.422;2022-11-23T15:33:25;4.40;99.90
1359;DHT22;673;48.098;14.422;2022-11-23T15:35:52;4.40;99.90
1359;DHT22;673;48.098;14.422;2022-11-23T15:38:20;4.30;99.90
1359;DHT22;673;48.098;14.422;2022-11-23T15:40:49;4.30;99.90
1359;DHT22;673;48.098;14.422;2022-11-23T15:43:18;4.30;99.90
1359;DHT22;673;48.098;14.422;2022-11-23T15:46:02;4.30;99.90
1359;DHT22;673;48.098;14.422;2022-11-23T15:48:32;4.30;99.90
1359;DHT22;673;48.098;14.422;2022-11-23T15:51:01;4.20;99.90
1359;DHT22;673;48.098;14.422;2022-11-23T15:53:30;4.20;99.90
1359;DHT22;673;48.098;14.422;2022-11-23T15:56:02;4.20;99.90
1359;DHT22;673;48.098;14.422;2022-11-23T15:58:30;4.20;99.90
1359;DHT22;673;48.098;14.422;2022-11-23T16:01:04;4.20;99.90
1359;DHT22;673;48.098;14.422;2022-11-23T16:03:34;4.10;99.90
1359;DHT22;673;48.098;14.422;2022-11-23T16:06:16;4.20;99.90
1359;DHT22;673;48.098;14.422;2022-11-23T16:08:43;4.20;99.90
1359;DHT22;673;48.098;14.422;2022-11-23T16:11:36;4.20;99.90
1359;DHT22;673;48.098;14.422;2022-11-23T16:14:11;4.20;99.90
1359;DHT22;673;48.098;14.422;2022-11-23T16:16:39;4.30;99.90
1359;DHT22;673;48.098;14.422;2022-11-23T16:19:23;4.20;99.90
1359;DHT22;673;48.098;14.422;2022-11-23T16:21:53;4.20;99.90
1359;DHT22;673;48.098;14.422;2022-11-23T16:24:22;4.00;99.90
1359;DHT22;673;48.098;14.422;2022-11-23T16:26:52;4.00;99.90
1359;DHT22;673;48.098;14.422;2022-11-23T16:29:22;3.90;99.90
1359;DHT22;673;48.098;14.422;2022-11-23T16:31:54;3.80;99.90
1359;DHT22;673;48.098;14.422;2022-11-23T16:34:22;3.80;99.90
1359;DHT22;673;48.098;14.422;2022-11-23T16:36:49;3.90;99.90
1359;DHT22;673;48.098;14.422;2022-11-23T16:39:17;3.90;99.90
1359;DHT22;673;48.098;14.422;2022-11-23T16:41:44;3.90;99.90
1359;DHT22;673;48.098;14.422;2022-11-23T16:44:13;3.80;99.90
1359;DHT22;673;48.098;14.422;2022-11-23T16:46:39;3.80;99.90
1359;DHT22;673;48.098;14.422;2022-11-23T16:49:13;3.80;99.90
1359;DHT22;673;48.098;14.422;2022-11-23T16:51:41;3.80;99.90
1359;DHT22;673;48.098;14.422;2022-11-23T16:54:09;3.70;99.90